sensor_id;sensor_type;location;lat;lon;timestamp;temperature;humidity
12907;DHT22;6521;50.498;8.474;2023-04-09T00:00:25;6.07;80.96
12907;DHT22;6521;50.498;8.474;2023-04-09T00:02:55;6.03;80.97
12907;DHT22;6521;50.498;8.474;2023-04-09T00:05:26;6.03;81.12
12907;DHT22;6521;50.498;8.474;2023-04-09T00:07:57;6.01;81.34
12907;DHT22;6521;50.498;8.474;2023-04-09T00:10:27;5.98;81.04
12907;DHT22;6521;50.498;8.474;2023-04-09T00:12:59;6.01;81.28
12907;DHT22;6521;50.498;8.474;2023-04-09T00:15:29;6.01;81.52
12907;DHT22;6521;50.498;8.474;2023-04-09T00:18:00;6.00;81.42
12907;DHT22;6521;50.498;8.474;2023-04-09T00:20:31;6.00;81.45
12907;DHT22;6521;50.498;8.474;2023-04-09T00:23:02;6.00;81.83
12907;DHT22;6521;50.498;8.474;2023-04-09T00:25:32;5.93;81.94
12907;DHT22;6521;50.498;8.474;2023-04-09T00:28:04;5.95;81.80
12907;DHT22;6521;50.498;8.474;2023-04-09T00:30:35;5.91;81.78
12907;DHT22;6521;50.498;8.474;2023-04-09T00:33:05;5.91;81.71
12907;DHT22;6521;50.498;8.474;2023-04-09T00:35:36;5.86;81.59
12907;DHT22;6521;50.498;8.474;2023-04-09T00:38:07;5.81;81.36
12907;DHT22;6521;50.498;8.474;2023-04-09T00:40:38;5.77;81.88
12907;DHT22;6521;50.498;8.474;2023-04-09T00:43:09;5.74;81.41
12907;DHT22;6521;50.498;8.474;2023-04-09T00:45:39;5.74;81.52
12907;DHT22;6521;50.498;8.474;2023-04-09T00:48:15;5.74;81.66
12907;DHT22;6521;50.498;8.474;2023-04-09T00:50:46;5.74;81.83
12907;DHT22;6521;50.498;8.474;2023-04-09T00:53:17;5.71;82.00
12907;DHT22;6521;50.498;8.474;2023-04-09T00:55:49;5.73;82.36
12907;DHT22;6521;50.498;8.474;2023-04-09T00:58:20;5.71;82.66
12907;DHT22;6521;50.498;8.474;2023-04-09T01:00:50;5.69;82.01
12907;DHT22;6521;50.498;8.474;2023-04-09T01:03:21;5.64;82.04
12907;DHT22;6521;50.498;8.474;2023-04-09T01:08:53;5.63;82.56
12907;DHT22;6521;50.498;8.474;2023-04-09T01:17:02;5.63;82.43
12907;DHT22;6521;50.498;8.474;2023-04-09T01:19:48;5.62;82.79
12907;DHT22;6521;50.498;8.474;2023-04-09T01:22:31;5.59;82.87
12907;DHT22;6521;50.498;8.474;2023-04-09T01:30:48;5.56;82.97
12907;DHT22;6521;50.498;8.474;2023-04-09T01:33:20;5.55;83.00
12907;DHT22;6521;50.498;8.474;2023-04-09T01:35:54;5.57;83.05
12907;DHT22;6521;50.498;8.474;2023-04-09T01:38:26;5.57;83.16
12907;DHT22;6521;50.498;8.474;2023-04-09T01:40:58;5.59;83.35
12907;DHT22;6521;50.498;8.474;2023-04-09T01:43:30;5.60;83.56
12907;DHT22;6521;50.498;8.474;2023-04-09T01:46:03;5.62;83.68
12907;DHT22;6521;50.498;8.474;2023-04-09T01:48:34;5.59;83.58
12907;DHT22;6521;50.498;8.474;2023-04-09T01:51:05;5.59;83.45
12907;DHT22;6521;50.498;8.474;2023-04-09T01:53:36;5.56;83.17
12907;DHT22;6521;50.498;8.474;2023-04-09T01:56:07;5.56;83.52
12907;DHT22;6521;50.498;8.474;2023-04-09T01:58:38;5.57;83.58
12907;DHT22;6521;50.498;8.474;2023-04-09T02:01:14;5.57;83.50
12907;DHT22;6521;50.498;8.474;2023-04-09T02:03:50;5.56;83.58
12907;DHT22;6521;50.498;8.474;2023-04-09T02:06:38;5.59;83.60
12907;DHT22;6521;50.498;8.474;2023-04-09T02:09:11;5.55;83.73
12907;DHT22;6521;50.498;8.474;2023-04-09T02:11:42;5.56;83.75
12907;DHT22;6521;50.498;8.474;2023-04-09T02:14:14;5.57;83.70
12907;DHT22;6521;50.498;8.474;2023-04-09T02:16:45;5.57;83.60
12907;DHT22;6521;50.498;8.474;2023-04-09T02:19:16;5.59;83.65
12907;DHT22;6521;50.498;8.474;2023-04-09T02:21:47;5.56;83.66
12907;DHT22;6521;50.498;8.474;2023-04-09T02:24:17;5.57;83.76
12907;DHT22;6521;50.498;8.474;2023-04-09T02:26:48;5.59;83.74
12907;DHT22;6521;50.498;8.474;2023-04-09T02:29:19;5.62;83.85
12907;DHT22;6521;50.498;8.474;2023-04-09T02:31:49;5.57;83.84
12907;DHT22;6521;50.498;8.474;2023-04-09T02:34:22;5.59;83.95
12907;DHT22;6521;50.498;8.474;2023-04-09T02:36:53;5.60;84.05
12907;DHT22;6521;50.498;8.474;2023-04-09T02:39:24;5.57;84.01
12907;DHT22;6521;50.498;8.474;2023-04-09T02:41:56;5.57;84.08
12907;DHT22;6521;50.498;8.474;2023-04-09T02:44:27;5.56;84.30
12907;DHT22;6521;50.498;8.474;2023-04-09T02:46:58;5.53;84.23
12907;DHT22;6521;50.498;8.474;2023-04-09T02:49:29;5.55;84.24
12907;DHT22;6521;50.498;8.474;2023-04-09T02:51:59;5.52;84.13
12907;DHT22;6521;50.498;8.474;2023-04-09T02:54:30;5.53;84.08
12907;DHT22;6521;50.498;8.474;2023-04-09T02:57:01;5.53;83.90
12907;DHT22;6521;50.498;8.474;2023-04-09T02:59:32;5.52;83.97
12907;DHT22;6521;50.498;8.474;2023-04-09T03:02:04;5.49;84.26
12907;DHT22;6521;50.498;8.474;2023-04-09T03:04:34;5.53;84.40
12907;DHT22;6521;50.498;8.474;2023-04-09T03:07:05;5.53;84.35
12907;DHT22;6521;50.498;8.474;2023-04-09T03:09:36;5.55;84.40
12907;DHT22;6521;50.498;8.474;2023-04-09T03:12:07;5.56;84.52
12907;DHT22;6521;50.498;8.474;2023-04-09T03:14:37;5.59;84.46
12907;DHT22;6521;50.498;8.474;2023-04-09T03:17:08;5.56;84.72
12907;DHT22;6521;50.498;8.474;2023-04-09T03:19:39;5.53;84.64
12907;DHT22;6521;50.498;8.474;2023-04-09T03:22:10;5.55;84.47
12907;DHT22;6521;50.498;8.474;2023-04-09T03:24:40;5.56;84.49
12907;DHT22;6521;50.498;8.474;2023-04-09T03:27:11;5.59;84.39
12907;DHT22;6521;50.498;8.474;2023-04-09T03:29:42;5.57;84.35
12907;DHT22;6521;50.498;8.474;2023-04-09T03:32:13;5.57;84.43
12907;DHT22;6521;50.498;8.474;2023-04-09T03:34:43;5.57;84.46
12907;DHT22;6521;50.498;8.474;2023-04-09T03:37:15;5.59;84.42
12907;DHT22;6521;50.498;8.474;2023-04-09T03:39:46;5.60;84.42
12907;DHT22;6521;50.498;8.474;2023-04-09T03:42:17;5.57;84.35
12907;DHT22;6521;50.498;8.474;2023-04-09T03:44:54;5.59;84.50
12907;DHT22;6521;50.498;8.474;2023-04-09T03:47:39;5.57;84.24
12907;DHT22;6521;50.498;8.474;2023-04-09T03:50:10;5.57;84.05
12907;DHT22;6521;50.498;8.474;2023-04-09T03:52:54;5.59;84.07
12907;DHT22;6521;50.498;8.474;2023-04-09T03:55:25;5.59;84.07
12907;DHT22;6521;50.498;8.474;2023-04-09T03:57:56;5.59;84.13
12907;DHT22;6521;50.498;8.474;2023-04-09T04:00:32;5.60;84.27
12907;DHT22;6521;50.498;8.474;2023-04-09T04:03:32;5.57;84.28
12907;DHT22;6521;50.498;8.474;2023-04-09T04:06:19;5.57;84.20
12907;DHT22;6521;50.498;8.474;2023-04-09T04:09:00;5.60;84.22
12907;DHT22;6521;50.498;8.474;2023-04-09T04:11:39;5.59;84.27
12907;DHT22;6521;50.498;8.474;2023-04-09T04:14:10;5.59;84.37
12907;DHT22;6521;50.498;8.474;2023-04-09T04:16:42;5.57;84.48
12907;DHT22;6521;50.498;8.474;2023-04-09T04:19:14;5.59;84.48
12907;DHT22;6521;50.498;8.474;2023-04-09T04:21:49;5.56;84.47
12907;DHT22;6521;50.498;8.474;2023-04-09T04:24:20;5.56;84.57
12907;DHT22;6521;50.498;8.474;2023-04-09T04:26:51;5.55;84.75
12907;DHT22;6521;50.498;8.474;2023-04-09T04:29:24;5.53;84.69
12907;DHT22;6521;50.498;8.474;2023-04-09T04:32:04;5.53;84.71
12907;DHT22;6521;50.498;8.474;2023-04-09T04:34:40;5.55;84.79
12907;DHT22;6521;50.498;8.474;2023-04-09T04:37:24;5.56;84.71
12907;DHT22;6521;50.498;8.474;2023-04-09T04:40:02;5.55;84.59
12907;DHT22;6521;50.498;8.474;2023-04-09T04:42:37;5.55;84.47
12907;DHT22;6521;50.498;8.474;2023-04-09T04:45:13;5.52;84.41
12907;DHT22;6521;50.498;8.474;2023-04-09T04:47:52;5.52;84.43
12907;DHT22;6521;50.498;8.474;2023-04-09T04:50:23;5.52;84.56
12907;DHT22;6521;50.498;8.474;2023-04-09T04:53:01;5.53;84.58
12907;DHT22;6521;50.498;8.474;2023-04-09T04:55:37;5.55;84.67
12907;DHT22;6521;50.498;8.474;2023-04-09T04:58:10;5.50;84.73
12907;DHT22;6521;50.498;8.474;2023-04-09T05:00:51;5.53;84.77
12907;DHT22;6521;50.498;8.474;2023-04-09T05:03:22;5.53;84.84
12907;DHT22;6521;50.498;8.474;2023-04-09T05:06:03;5.56;85.00
12907;DHT22;6521;50.498;8.474;2023-04-09T05:08:41;5.55;84.90
12907;DHT22;6521;50.498;8.474;2023-04-09T05:11:12;5.55;84.93
12907;DHT22;6521;50.498;8.474;2023-04-09T05:13:46;5.56;84.96
12907;DHT22;6521;50.498;8.474;2023-04-09T05:16:19;5.56;85.02
12907;DHT22;6521;50.498;8.474;2023-04-09T05:18:56;5.56;85.06
12907;DHT22;6521;50.498;8.474;2023-04-09T05:21:27;5.57;85.04
12907;DHT22;6521;50.498;8.474;2023-04-09T05:23:59;5.59;85.02
12907;DHT22;6521;50.498;8.474;2023-04-09T05:26:33;5.60;85.13
12907;DHT22;6521;50.498;8.474;2023-04-09T05:29:03;5.60;85.12
12907;DHT22;6521;50.498;8.474;2023-04-09T05:31:35;5.62;85.09
12907;DHT22;6521;50.498;8.474;2023-04-09T05:34:13;5.66;85.07
12907;DHT22;6521;50.498;8.474;2023-04-09T05:36:48;5.69;85.05
12907;DHT22;6521;50.498;8.474;2023-04-09T05:39:19;5.69;84.97
12907;DHT22;6521;50.498;8.474;2023-04-09T05:41:50;5.73;85.06
12907;DHT22;6521;50.498;8.474;2023-04-09T05:44:21;5.70;85.10
12907;DHT22;6521;50.498;8.474;2023-04-09T05:46:54;5.74;84.91
12907;DHT22;6521;50.498;8.474;2023-04-09T05:49:30;5.77;84.90
12907;DHT22;6521;50.498;8.474;2023-04-09T05:52:02;5.78;84.80
12907;DHT22;6521;50.498;8.474;2023-04-09T05:54:35;5.78;84.86
12907;DHT22;6521;50.498;8.474;2023-04-09T05:57:08;5.86;84.79
12907;DHT22;6521;50.498;8.474;2023-04-09T05:59:41;5.87;84.54
12907;DHT22;6521;50.498;8.474;2023-04-09T06:02:12;5.90;84.58
12907;DHT22;6521;50.498;8.474;2023-04-09T06:04:42;5.97;84.53
12907;DHT22;6521;50.498;8.474;2023-04-09T06:07:14;6.01;84.53
12907;DHT22;6521;50.498;8.474;2023-04-09T06:09:46;6.03;84.23
12907;DHT22;6521;50.498;8.474;2023-04-09T06:12:16;6.05;84.16
12907;DHT22;6521;50.498;8.474;2023-04-09T06:14:47;6.08;84.14
12907;DHT22;6521;50.498;8.474;2023-04-09T06:17:18;6.14;84.10
12907;DHT22;6521;50.498;8.474;2023-04-09T06:19:49;6.15;84.03
12907;DHT22;6521;50.498;8.474;2023-04-09T06:22:20;6.13;84.25
12907;DHT22;6521;50.498;8.474;2023-04-09T06:24:51;6.21;84.61
12907;DHT22;6521;50.498;8.474;2023-04-09T06:27:22;6.25;84.50
12907;DHT22;6521;50.498;8.474;2023-04-09T06:29:52;6.29;84.69
12907;DHT22;6521;50.498;8.474;2023-04-09T06:32:23;6.31;84.38
12907;DHT22;6521;50.498;8.474;2023-04-09T06:34:54;6.35;84.48
12907;DHT22;6521;50.498;8.474;2023-04-09T06:37:24;6.39;84.47
12907;DHT22;6521;50.498;8.474;2023-04-09T06:39:55;6.44;84.14
12907;DHT22;6521;50.498;8.474;2023-04-09T06:42:26;6.46;84.05
12907;DHT22;6521;50.498;8.474;2023-04-09T06:45:08;6.53;84.34
12907;DHT22;6521;50.498;8.474;2023-04-09T06:47:39;6.61;84.36
12907;DHT22;6521;50.498;8.474;2023-04-09T06:50:09;6.72;84.30
12907;DHT22;6521;50.498;8.474;2023-04-09T06:52:40;6.76;84.21
12907;DHT22;6521;50.498;8.474;2023-04-09T06:55:11;6.83;84.21
12907;DHT22;6521;50.498;8.474;2023-04-09T06:57:42;6.86;84.17
12907;DHT22;6521;50.498;8.474;2023-04-09T07:00:13;6.92;84.15
12907;DHT22;6521;50.498;8.474;2023-04-09T07:02:43;7.00;84.21
12907;DHT22;6521;50.498;8.474;2023-04-09T07:05:14;7.05;84.03
12907;DHT22;6521;50.498;8.474;2023-04-09T07:07:45;7.11;83.72
12907;DHT22;6521;50.498;8.474;2023-04-09T07:10:16;7.18;83.76
12907;DHT22;6521;50.498;8.474;2023-04-09T07:12:46;7.25;83.92
12907;DHT22;6521;50.498;8.474;2023-04-09T07:15:17;7.36;83.85
12907;DHT22;6521;50.498;8.474;2023-04-09T07:17:48;7.48;83.91
12907;DHT22;6521;50.498;8.474;2023-04-09T07:20:18;7.56;83.36
12907;DHT22;6521;50.498;8.474;2023-04-09T07:22:49;7.68;83.29
12907;DHT22;6521;50.498;8.474;2023-04-09T07:25:20;7.73;82.92
12907;DHT22;6521;50.498;8.474;2023-04-09T07:27:51;7.85;82.72
12907;DHT22;6521;50.498;8.474;2023-04-09T07:30:21;7.87;82.21
12907;DHT22;6521;50.498;8.474;2023-04-09T07:32:53;7.96;81.96
12907;DHT22;6521;50.498;8.474;2023-04-09T07:35:24;8.06;82.13
12907;DHT22;6521;50.498;8.474;2023-04-09T07:37:55;8.14;81.88
12907;DHT22;6521;50.498;8.474;2023-04-09T07:40:26;8.29;81.79
12907;DHT22;6521;50.498;8.474;2023-04-09T07:42:57;8.38;81.47
12907;DHT22;6521;50.498;8.474;2023-04-09T07:45:28;8.47;81.03
12907;DHT22;6521;50.498;8.474;2023-04-09T07:47:58;8.45;80.89
12907;DHT22;6521;50.498;8.474;2023-04-09T07:50:29;8.54;80.77
12907;DHT22;6521;50.498;8.474;2023-04-09T07:53:00;8.65;80.79
12907;DHT22;6521;50.498;8.474;2023-04-09T07:55:30;8.78;80.66
12907;DHT22;6521;50.498;8.474;2023-04-09T07:58:01;8.92;80.63
12907;DHT22;6521;50.498;8.474;2023-04-09T08:00:33;9.02;79.80
12907;DHT22;6521;50.498;8.474;2023-04-09T08:03:04;9.03;80.03
12907;DHT22;6521;50.498;8.474;2023-04-09T08:05:35;9.10;79.80
12907;DHT22;6521;50.498;8.474;2023-04-09T08:08:07;9.19;79.14
12907;DHT22;6521;50.498;8.474;2023-04-09T08:10:38;9.27;79.56
12907;DHT22;6521;50.498;8.474;2023-04-09T08:13:08;9.40;78.52
12907;DHT22;6521;50.498;8.474;2023-04-09T08:15:39;9.43;78.19
12907;DHT22;6521;50.498;8.474;2023-04-09T08:18:10;9.51;78.53
12907;DHT22;6521;50.498;8.474;2023-04-09T08:20:41;9.58;77.59
12907;DHT22;6521;50.498;8.474;2023-04-09T08:23:14;9.70;77.49
12907;DHT22;6521;50.498;8.474;2023-04-09T08:25:45;9.77;76.69
12907;DHT22;6521;50.498;8.474;2023-04-09T08:28:16;9.85;76.21
12907;DHT22;6521;50.498;8.474;2023-04-09T08:30:46;9.95;76.33
12907;DHT22;6521;50.498;8.474;2023-04-09T08:33:17;10.06;76.32
12907;DHT22;6521;50.498;8.474;2023-04-09T08:35:48;10.12;74.75
12907;DHT22;6521;50.498;8.474;2023-04-09T08:38:19;10.23;74.49
12907;DHT22;6521;50.498;8.474;2023-04-09T08:40:50;10.38;74.49
12907;DHT22;6521;50.498;8.474;2023-04-09T08:43:21;10.49;73.24
12907;DHT22;6521;50.498;8.474;2023-04-09T08:45:54;10.67;73.18
12907;DHT22;6521;50.498;8.474;2023-04-09T08:48:27;10.84;72.46
12907;DHT22;6521;50.498;8.474;2023-04-09T08:50:59;10.94;71.24
12907;DHT22;6521;50.498;8.474;2023-04-09T08:53:30;11.08;71.09
12907;DHT22;6521;50.498;8.474;2023-04-09T08:56:01;11.18;70.52
12907;DHT22;6521;50.498;8.474;2023-04-09T08:58:32;11.25;70.03
12907;DHT22;6521;50.498;8.474;2023-04-09T09:01:03;11.39;68.80
12907;DHT22;6521;50.498;8.474;2023-04-09T09:03:51;11.47;68.33
12907;DHT22;6521;50.498;8.474;2023-04-09T09:06:28;11.39;65.82
12907;DHT22;6521;50.498;8.474;2023-04-09T09:11:42;11.70;67.21
12907;DHT22;6521;50.498;8.474;2023-04-09T09:14:17;11.91;66.65
12907;DHT22;6521;50.498;8.474;2023-04-09T09:17:09;11.93;64.95
12907;DHT22;6521;50.498;8.474;2023-04-09T09:19:39;12.16;66.24
12907;DHT22;6521;50.498;8.474;2023-04-09T09:22:10;12.52;66.50
12907;DHT22;6521;50.498;8.474;2023-04-09T09:24:49;12.96;64.24
12907;DHT22;6521;50.498;8.474;2023-04-09T09:30:03;13.09;63.33
12907;DHT22;6521;50.498;8.474;2023-04-09T09:32:35;12.93;58.11
12907;DHT22;6521;50.498;8.474;2023-04-09T09:35:06;12.97;59.71
12907;DHT22;6521;50.498;8.474;2023-04-09T09:37:37;13.12;61.95
12907;DHT22;6521;50.498;8.474;2023-04-09T09:40:08;13.22;60.51
12907;DHT22;6521;50.498;8.474;2023-04-09T09:42:54;13.44;59.54
12907;DHT22;6521;50.498;8.474;2023-04-09T09:45:25;13.79;60.08
12907;DHT22;6521;50.498;8.474;2023-04-09T09:47:56;14.08;59.30
12907;DHT22;6521;50.498;8.474;2023-04-09T09:50:29;14.60;57.40
12907;DHT22;6521;50.498;8.474;2023-04-09T09:53:03;14.84;56.32
12907;DHT22;6521;50.498;8.474;2023-04-09T09:55:45;15.34;53.77
12907;DHT22;6521;50.498;8.474;2023-04-09T09:58:22;15.63;53.25
12907;DHT22;6521;50.498;8.474;2023-04-09T10:00:54;15.19;52.62
12907;DHT22;6521;50.498;8.474;2023-04-09T10:03:28;14.91;54.18
12907;DHT22;6521;50.498;8.474;2023-04-09T10:06:01;14.55;55.88
12907;DHT22;6521;50.498;8.474;2023-04-09T10:08:33;14.40;56.06
12907;DHT22;6521;50.498;8.474;2023-04-09T10:11:06;14.16;56.07
12907;DHT22;6521;50.498;8.474;2023-04-09T10:13:48;13.95;56.18
12907;DHT22;6521;50.498;8.474;2023-04-09T10:16:20;13.91;56.93
12907;DHT22;6521;50.498;8.474;2023-04-09T10:18:54;13.70;57.73
12907;DHT22;6521;50.498;8.474;2023-04-09T10:21:44;13.41;58.61
12907;DHT22;6521;50.498;8.474;2023-04-09T10:24:17;13.14;58.62
12907;DHT22;6521;50.498;8.474;2023-04-09T10:26:47;12.91;57.65
12907;DHT22;6521;50.498;8.474;2023-04-09T10:29:26;12.58;58.16
12907;DHT22;6521;50.498;8.474;2023-04-09T10:32:05;12.52;59.29
12907;DHT22;6521;50.498;8.474;2023-04-09T10:34:42;12.52;60.25
12907;DHT22;6521;50.498;8.474;2023-04-09T10:37:19;12.45;58.45
12907;DHT22;6521;50.498;8.474;2023-04-09T10:39:51;12.45;58.65
12907;DHT22;6521;50.498;8.474;2023-04-09T10:42:36;12.44;60.09
12907;DHT22;6521;50.498;8.474;2023-04-09T10:45:13;12.48;59.03
12907;DHT22;6521;50.498;8.474;2023-04-09T10:47:49;12.42;59.15
12907;DHT22;6521;50.498;8.474;2023-04-09T10:50:24;12.38;57.96
12907;DHT22;6521;50.498;8.474;2023-04-09T10:52:56;12.37;57.08
12907;DHT22;6521;50.498;8.474;2023-04-09T10:55:37;12.25;58.53
12907;DHT22;6521;50.498;8.474;2023-04-09T10:58:09;12.28;57.77
12907;DHT22;6521;50.498;8.474;2023-04-09T11:00:42;12.37;57.42
12907;DHT22;6521;50.498;8.474;2023-04-09T11:03:26;12.37;58.52
12907;DHT22;6521;50.498;8.474;2023-04-09T11:05:59;12.31;57.88
12907;DHT22;6521;50.498;8.474;2023-04-09T11:08:32;12.31;55.47
12907;DHT22;6521;50.498;8.474;2023-04-09T11:11:03;12.30;57.24
12907;DHT22;6521;50.498;8.474;2023-04-09T11:13:34;12.35;57.45
12907;DHT22;6521;50.498;8.474;2023-04-09T11:16:05;12.28;57.04
12907;DHT22;6521;50.498;8.474;2023-04-09T11:18:36;12.28;58.04
12907;DHT22;6521;50.498;8.474;2023-04-09T11:21:07;12.30;57.56
12907;DHT22;6521;50.498;8.474;2023-04-09T11:23:39;12.18;55.34
12907;DHT22;6521;50.498;8.474;2023-04-09T11:26:10;12.14;54.22
12907;DHT22;6521;50.498;8.474;2023-04-09T11:28:42;12.07;51.55
12907;DHT22;6521;50.498;8.474;2023-04-09T11:31:12;11.90;51.64
12907;DHT22;6521;50.498;8.474;2023-04-09T11:33:46;11.82;52.50
12907;DHT22;6521;50.498;8.474;2023-04-09T11:36:17;11.87;54.02
12907;DHT22;6521;50.498;8.474;2023-04-09T11:38:48;11.83;55.36
12907;DHT22;6521;50.498;8.474;2023-04-09T11:41:36;11.77;52.55
12907;DHT22;6521;50.498;8.474;2023-04-09T11:44:07;11.82;51.41
12907;DHT22;6521;50.498;8.474;2023-04-09T11:46:38;11.91;53.36
12907;DHT22;6521;50.498;8.474;2023-04-09T11:49:09;12.18;52.87
12907;DHT22;6521;50.498;8.474;2023-04-09T11:51:40;12.18;53.78
12907;DHT22;6521;50.498;8.474;2023-04-09T11:54:11;12.21;53.29
12907;DHT22;6521;50.498;8.474;2023-04-09T11:56:41;12.17;53.61
12907;DHT22;6521;50.498;8.474;2023-04-09T11:59:13;12.14;53.38
12907;DHT22;6521;50.498;8.474;2023-04-09T12:01:48;12.10;54.13
12907;DHT22;6521;50.498;8.474;2023-04-09T12:04:19;12.10;51.78
12907;DHT22;6521;50.498;8.474;2023-04-09T12:06:56;12.21;53.63
12907;DHT22;6521;50.498;8.474;2023-04-09T12:09:28;12.27;52.38
12907;DHT22;6521;50.498;8.474;2023-04-09T12:11:59;12.30;51.29
12907;DHT22;6521;50.498;8.474;2023-04-09T12:14:30;12.35;51.69
12907;DHT22;6521;50.498;8.474;2023-04-09T12:17:01;12.28;52.55
12907;DHT22;6521;50.498;8.474;2023-04-09T12:19:35;12.28;51.91
12907;DHT22;6521;50.498;8.474;2023-04-09T12:22:06;12.25;52.69
12907;DHT22;6521;50.498;8.474;2023-04-09T12:24:36;12.34;52.45
12907;DHT22;6521;50.498;8.474;2023-04-09T12:27:07;12.23;51.81
12907;DHT22;6521;50.498;8.474;2023-04-09T12:29:40;12.31;54.07
12907;DHT22;6521;50.498;8.474;2023-04-09T12:32:11;12.52;56.21
12907;DHT22;6521;50.498;8.474;2023-04-09T12:34:42;12.81;56.69
12907;DHT22;6521;50.498;8.474;2023-04-09T12:37:13;12.89;56.07
12907;DHT22;6521;50.498;8.474;2023-04-09T12:39:43;12.93;55.31
12907;DHT22;6521;50.498;8.474;2023-04-09T12:42:14;12.86;54.29
12907;DHT22;6521;50.498;8.474;2023-04-09T12:44:45;12.89;55.71
12907;DHT22;6521;50.498;8.474;2023-04-09T12:47:16;12.73;54.52
12907;DHT22;6521;50.498;8.474;2023-04-09T12:49:47;12.58;54.27
12907;DHT22;6521;50.498;8.474;2023-04-09T12:52:19;12.58;54.87
12907;DHT22;6521;50.498;8.474;2023-04-09T12:54:51;12.49;54.34
12907;DHT22;6521;50.498;8.474;2023-04-09T12:57:23;12.54;53.80
12907;DHT22;6521;50.498;8.474;2023-04-09T12:59:53;12.55;55.79
12907;DHT22;6521;50.498;8.474;2023-04-09T13:02:24;12.78;55.02
12907;DHT22;6521;50.498;8.474;2023-04-09T13:04:55;12.81;53.18
12907;DHT22;6521;50.498;8.474;2023-04-09T13:07:26;13.04;52.68
12907;DHT22;6521;50.498;8.474;2023-04-09T13:09:58;13.44;53.43
12907;DHT22;6521;50.498;8.474;2023-04-09T13:12:29;13.99;55.09
12907;DHT22;6521;50.498;8.474;2023-04-09T13:15:00;14.26;49.89
12907;DHT22;6521;50.498;8.474;2023-04-09T13:17:31;14.01;50.96
12907;DHT22;6521;50.498;8.474;2023-04-09T13:20:02;13.92;52.14
12907;DHT22;6521;50.498;8.474;2023-04-09T13:22:33;13.91;52.36
12907;DHT22;6521;50.498;8.474;2023-04-09T13:25:04;13.86;51.24
12907;DHT22;6521;50.498;8.474;2023-04-09T13:27:35;13.64;49.98
12907;DHT22;6521;50.498;8.474;2023-04-09T13:30:06;13.33;50.66
12907;DHT22;6521;50.498;8.474;2023-04-09T13:32:37;13.28;52.60
12907;DHT22;6521;50.498;8.474;2023-04-09T13:35:08;13.16;50.75
12907;DHT22;6521;50.498;8.474;2023-04-09T13:37:40;13.04;52.00
12907;DHT22;6521;50.498;8.474;2023-04-09T13:40:11;13.02;52.10
12907;DHT22;6521;50.498;8.474;2023-04-09T13:42:42;13.07;51.19
12907;DHT22;6521;50.498;8.474;2023-04-09T13:45:12;13.10;50.31
12907;DHT22;6521;50.498;8.474;2023-04-09T13:47:43;13.23;50.93
12907;DHT22;6521;50.498;8.474;2023-04-09T13:50:14;13.16;49.69
12907;DHT22;6521;50.498;8.474;2023-04-09T13:52:45;13.14;47.89
12907;DHT22;6521;50.498;8.474;2023-04-09T13:55:15;12.96;49.71
12907;DHT22;6521;50.498;8.474;2023-04-09T13:57:46;12.82;49.87
12907;DHT22;6521;50.498;8.474;2023-04-09T14:00:17;12.72;48.81
12907;DHT22;6521;50.498;8.474;2023-04-09T14:02:49;12.71;49.39
12907;DHT22;6521;50.498;8.474;2023-04-09T14:05:19;13.14;52.37
12907;DHT22;6521;50.498;8.474;2023-04-09T14:07:50;13.92;52.53
12907;DHT22;6521;50.498;8.474;2023-04-09T14:10:21;14.55;49.06
12907;DHT22;6521;50.498;8.474;2023-04-09T14:12:52;15.08;47.79
12907;DHT22;6521;50.498;8.474;2023-04-09T14:15:23;15.27;46.21
12907;DHT22;6521;50.498;8.474;2023-04-09T14:17:53;15.05;45.78
12907;DHT22;6521;50.498;8.474;2023-04-09T14:20:24;15.04;44.26
12907;DHT22;6521;50.498;8.474;2023-04-09T14:22:55;14.84;48.53
12907;DHT22;6521;50.498;8.474;2023-04-09T14:25:26;14.76;45.93
12907;DHT22;6521;50.498;8.474;2023-04-09T14:27:57;14.70;47.32
12907;DHT22;6521;50.498;8.474;2023-04-09T14:30:28;14.74;49.55
12907;DHT22;6521;50.498;8.474;2023-04-09T14:33:00;14.71;48.46
12907;DHT22;6521;50.498;8.474;2023-04-09T14:35:31;14.71;48.08
12907;DHT22;6521;50.498;8.474;2023-04-09T14:38:01;14.84;47.34
12907;DHT22;6521;50.498;8.474;2023-04-09T14:40:35;14.91;47.98
12907;DHT22;6521;50.498;8.474;2023-04-09T14:43:05;15.01;46.88
12907;DHT22;6521;50.498;8.474;2023-04-09T14:45:37;15.25;47.17
12907;DHT22;6521;50.498;8.474;2023-04-09T14:48:07;15.18;46.27
12907;DHT22;6521;50.498;8.474;2023-04-09T14:50:38;14.98;47.32
12907;DHT22;6521;50.498;8.474;2023-04-09T14:53:09;14.98;48.23
12907;DHT22;6521;50.498;8.474;2023-04-09T14:55:40;14.78;46.63
12907;DHT22;6521;50.498;8.474;2023-04-09T14:58:10;14.55;46.88
12907;DHT22;6521;50.498;8.474;2023-04-09T15:00:41;14.40;49.50
12907;DHT22;6521;50.498;8.474;2023-04-09T15:03:14;14.41;49.50
12907;DHT22;6521;50.498;8.474;2023-04-09T15:05:44;14.77;48.21
12907;DHT22;6521;50.498;8.474;2023-04-09T15:08:15;15.19;46.42
12907;DHT22;6521;50.498;8.474;2023-04-09T15:10:46;15.50;44.56
12907;DHT22;6521;50.498;8.474;2023-04-09T15:13:16;15.39;42.65
12907;DHT22;6521;50.498;8.474;2023-04-09T15:15:47;15.27;42.01
12907;DHT22;6521;50.498;8.474;2023-04-09T15:18:18;15.09;42.32
12907;DHT22;6521;50.498;8.474;2023-04-09T15:20:48;14.49;42.65
12907;DHT22;6521;50.498;8.474;2023-04-09T15:23:20;14.13;44.72
12907;DHT22;6521;50.498;8.474;2023-04-09T15:25:51;14.02;45.01
12907;DHT22;6521;50.498;8.474;2023-04-09T15:28:21;14.20;45.65
12907;DHT22;6521;50.498;8.474;2023-04-09T15:30:53;14.50;46.56
12907;DHT22;6521;50.498;8.474;2023-04-09T15:33:24;14.50;48.32
12907;DHT22;6521;50.498;8.474;2023-04-09T15:35:58;14.32;46.93
12907;DHT22;6521;50.498;8.474;2023-04-09T15:38:28;14.16;49.52
12907;DHT22;6521;50.498;8.474;2023-04-09T15:40:59;14.01;51.12
12907;DHT22;6521;50.498;8.474;2023-04-09T15:43:30;14.05;49.42
12907;DHT22;6521;50.498;8.474;2023-04-09T15:46:10;14.02;49.84
12907;DHT22;6521;50.498;8.474;2023-04-09T15:48:41;14.16;49.75
12907;DHT22;6521;50.498;8.474;2023-04-09T15:51:11;14.29;48.32
12907;DHT22;6521;50.498;8.474;2023-04-09T15:53:43;14.20;49.23
12907;DHT22;6521;50.498;8.474;2023-04-09T15:56:13;14.19;49.02
12907;DHT22;6521;50.498;8.474;2023-04-09T15:58:47;14.08;45.86
12907;DHT22;6521;50.498;8.474;2023-04-09T16:01:18;14.11;46.47
12907;DHT22;6521;50.498;8.474;2023-04-09T16:03:48;14.25;49.20
12907;DHT22;6521;50.498;8.474;2023-04-09T16:06:21;14.28;47.51
12907;DHT22;6521;50.498;8.474;2023-04-09T16:08:52;14.39;48.65
12907;DHT22;6521;50.498;8.474;2023-04-09T16:11:23;14.39;48.75
12907;DHT22;6521;50.498;8.474;2023-04-09T16:13:54;14.43;48.18
12907;DHT22;6521;50.498;8.474;2023-04-09T16:16:26;14.39;48.06
12907;DHT22;6521;50.498;8.474;2023-04-09T16:18:57;14.41;47.87
12907;DHT22;6521;50.498;8.474;2023-04-09T16:21:28;14.44;47.98
12907;DHT22;6521;50.498;8.474;2023-04-09T16:23:59;14.36;47.22
12907;DHT22;6521;50.498;8.474;2023-04-09T16:26:30;14.37;47.38
12907;DHT22;6521;50.498;8.474;2023-04-09T16:29:00;14.43;46.10
12907;DHT22;6521;50.498;8.474;2023-04-09T16:31:34;14.41;47.11
12907;DHT22;6521;50.498;8.474;2023-04-09T16:34:05;14.40;46.91
12907;DHT22;6521;50.498;8.474;2023-04-09T16:36:36;14.43;47.21
12907;DHT22;6521;50.498;8.474;2023-04-09T16:39:07;14.50;46.23
12907;DHT22;6521;50.498;8.474;2023-04-09T16:41:37;14.34;44.54
12907;DHT22;6521;50.498;8.474;2023-04-09T16:44:08;14.20;44.68
12907;DHT22;6521;50.498;8.474;2023-04-09T16:46:39;14.05;44.68